createdAt,value
2023-09-07T00:04:13.421Z,9.45
2023-09-07T00:06:13.291Z,9.67
2023-09-07T00:08:13.300Z,8.83
2023-09-07T00:10:13.348Z,8.84
2023-09-07T00:12:13.276Z,9.58
2023-09-07T00:15:13.318Z,9.75
2023-09-07T00:17:13.412Z,8.45
2023-09-07T00:19:13.336Z,8.97
2023-09-07T00:21:13.330Z,9.21
2023-09-07T00:23:13.341Z,9.05
2023-09-07T00:26:13.348Z,8.42
2023-09-07T00:28:13.376Z,7.98
2023-09-07T00:30:13.336Z,9.40
2023-09-07T00:32:13.390Z,9.76
2023-09-07T00:34:13.369Z,9.20
2023-09-07T00:36:13.375Z,9.63
2023-09-07T00:38:13.343Z,8.74
2023-09-07T00:40:13.384Z,9.29
2023-09-07T00:42:13.382Z,8.56
2023-09-07T00:44:13.396Z,9.35
2023-09-07T00:47:13.458Z,8.88
2023-09-07T00:49:13.409Z,8.74
2023-09-07T00:54:13.376Z,9.00
2023-09-07T00:56:13.389Z,8.70
2023-09-07T00:58:13.446Z,8.88
2023-09-07T01:00:13.453Z,8.65
2023-09-07T01:02:13.545Z,9.33
2023-09-07T01:04:13.407Z,13.62
2023-09-07T01:06:13.471Z,13.42
2023-09-07T01:08:13.533Z,10.38
2023-09-07T01:10:13.469Z,10.83
2023-09-07T01:12:13.427Z,9.10
2023-09-07T01:16:13.597Z,8.58
2023-09-07T01:18:23.979Z,9.34
2023-09-07T01:20:13.449Z,8.64
2023-09-07T01:22:13.461Z,8.11
2023-09-07T01:24:13.495Z,8.47
2023-09-07T01:28:13.478Z,8.93
2023-09-07T01:30:13.526Z,8.28
2023-09-07T01:32:13.561Z,9.48
2023-09-07T01:34:13.522Z,8.55
2023-09-07T01:36:13.488Z,8.52
2023-09-07T01:38:13.496Z,8.47
2023-09-07T01:40:13.534Z,8.32
2023-09-07T01:42:13.540Z,9.59
2023-09-07T01:44:13.524Z,8.46
2023-09-07T01:46:13.557Z,8.18
2023-09-07T01:48:13.617Z,8.06
2023-09-07T01:50:13.610Z,9.10
2023-09-07T01:52:13.522Z,8.47
2023-09-07T01:54:13.559Z,8.70
2023-09-07T01:56:13.719Z,9.09
2023-09-07T01:59:13.597Z,9.29
2023-09-07T02:01:13.632Z,9.28
2023-09-07T02:03:13.618Z,8.76
2023-09-07T02:05:13.613Z,8.34
2023-09-07T02:07:13.559Z,8.34
2023-09-07T02:09:13.643Z,8.32
2023-09-07T02:11:13.667Z,8.94
2023-09-07T02:13:13.628Z,9.16
2023-09-07T02:16:13.709Z,7.89
2023-09-07T02:18:13.602Z,7.94
2023-09-07T02:20:13.650Z,8.88
2023-09-07T02:22:13.708Z,8.18
2023-09-07T02:24:13.665Z,8.44
2023-09-07T02:26:13.662Z,8.04
2023-09-07T02:28:13.664Z,8.32
2023-09-07T02:30:13.742Z,7.30
2023-09-07T02:32:13.676Z,8.95
2023-09-07T02:34:13.688Z,8.23
2023-09-07T02:36:13.657Z,7.86
2023-09-07T02:38:13.659Z,7.77
2023-09-07T02:40:13.714Z,8.75
2023-09-07T02:43:13.722Z,8.37
2023-09-07T02:45:13.776Z,7.86
2023-09-07T02:47:13.682Z,7.30
2023-09-07T02:49:13.679Z,8.74
2023-09-07T02:51:13.756Z,8.63
2023-09-07T02:53:13.721Z,7.68
2023-09-07T02:56:13.745Z,8.77
2023-09-07T02:58:13.770Z,9.23
2023-09-07T03:00:13.728Z,7.88
2023-09-07T03:02:13.769Z,7.73
2023-09-07T03:06:13.777Z,8.42
2023-09-07T03:08:13.778Z,8.33
2023-09-07T03:10:13.765Z,8.74
2023-09-07T03:13:13.743Z,7.80
2023-09-07T03:15:13.764Z,8.49
2023-09-07T03:17:13.939Z,7.91
2023-09-07T03:20:13.754Z,7.24
2023-09-07T03:23:13.774Z,8.39
2023-09-07T03:27:13.806Z,8.35
2023-09-07T03:29:13.798Z,7.72
2023-09-07T03:31:13.913Z,8.08
2023-09-07T03:33:13.998Z,7.71
2023-09-07T03:35:13.846Z,9.53
2023-09-07T03:39:13.851Z,8.41
2023-09-07T03:42:13.815Z,7.65
2023-09-07T03:44:13.821Z,9.87
2023-09-07T03:46:13.917Z,7.50
2023-09-07T03:48:13.925Z,8.46
2023-09-07T03:51:13.867Z,8.25
2023-09-07T03:53:13.954Z,8.44
2023-09-07T03:55:13.831Z,8.80
2023-09-07T03:58:13.890Z,8.17
2023-09-07T04:01:13.944Z,9.25
2023-09-07T04:04:13.966Z,8.00
2023-09-07T04:06:13.966Z,9.06
2023-09-07T04:08:13.886Z,10.40
2023-09-07T04:10:13.904Z,9.93
2023-09-07T04:12:13.938Z,9.98
2023-09-07T04:14:13.924Z,10.20
2023-09-07T04:16:13.958Z,8.95
2023-09-07T04:18:13.905Z,8.58
2023-09-07T04:20:13.944Z,8.93
2023-09-07T04:22:13.954Z,9.42
2023-09-07T04:24:13.953Z,9.17
2023-09-07T04:26:13.918Z,8.76
2023-09-07T04:29:13.936Z,9.64
2023-09-07T04:31:13.971Z,9.43
2023-09-07T04:33:13.978Z,9.49
2023-09-07T04:35:13.984Z,9.81
2023-09-07T04:37:14.010Z,9.73
2023-09-07T04:39:13.954Z,9.24
2023-09-07T04:41:14.081Z,9.27
2023-09-07T04:43:14.020Z,9.60
2023-09-07T04:45:14.032Z,8.73
2023-09-07T04:47:14.022Z,10.44
2023-09-07T04:50:14.010Z,9.93
2023-09-07T04:53:14.097Z,10.05
2023-09-07T04:55:14.015Z,9.16
2023-09-07T04:57:13.999Z,9.88
2023-09-07T04:59:14.056Z,9.91
2023-09-07T05:01:14.118Z,10.06
2023-09-07T05:03:14.123Z,9.69
2023-09-07T05:05:14.013Z,9.67
2023-09-07T05:07:14.066Z,10.57
2023-09-07T05:10:14.062Z,9.60
2023-09-07T05:12:14.108Z,10.38
2023-09-07T05:14:14.085Z,9.52
2023-09-07T05:17:14.095Z,9.20
2023-09-07T05:19:14.120Z,9.92
2023-09-07T05:21:14.120Z,9.48
2023-09-07T05:23:14.115Z,9.67
2023-09-07T05:25:14.114Z,9.33
2023-09-07T05:28:14.110Z,8.78
2023-09-07T05:30:14.132Z,8.80
2023-09-07T05:32:14.090Z,9.34
2023-09-07T05:34:14.109Z,10.45
2023-09-07T05:36:14.138Z,10.90
2023-09-07T05:38:14.145Z,9.84
2023-09-07T05:40:14.211Z,10.80
2023-09-07T05:42:14.130Z,10.13
2023-09-07T05:44:14.164Z,10.22
2023-09-07T05:46:14.264Z,10.29
2023-09-07T05:48:14.242Z,10.73
2023-09-07T05:50:14.141Z,9.92
2023-09-07T05:52:14.194Z,10.32
2023-09-07T05:54:14.214Z,10.28
2023-09-07T05:56:14.191Z,9.52
2023-09-07T05:58:14.223Z,10.19
2023-09-07T06:00:14.250Z,10.89
2023-09-07T06:02:14.226Z,9.82
2023-09-07T06:04:14.393Z,10.72
2023-09-07T06:06:14.189Z,9.75
2023-09-07T06:08:14.237Z,10.36
2023-09-07T06:10:14.228Z,10.05
2023-09-07T06:12:14.255Z,10.13
2023-09-07T06:14:14.192Z,10.85
2023-09-07T06:16:14.230Z,11.03
2023-09-07T06:18:14.295Z,10.87
2023-09-07T06:20:14.404Z,10.68
2023-09-07T06:22:14.264Z,11.50
2023-09-07T06:24:14.233Z,9.31
2023-09-07T06:26:14.264Z,10.90
2023-09-07T06:28:14.290Z,10.75
2023-09-07T06:30:14.290Z,10.90
2023-09-07T06:32:14.332Z,10.56
2023-09-07T06:34:14.262Z,11.36
2023-09-07T06:36:14.299Z,10.21
2023-09-07T06:38:15.516Z,11.11
2023-09-07T06:40:14.274Z,11.82
2023-09-07T06:42:14.276Z,9.73
2023-09-07T06:44:14.326Z,11.08
2023-09-07T06:46:14.365Z,11.89
2023-09-07T06:48:14.343Z,9.68
2023-09-07T06:50:14.310Z,9.75
2023-09-07T06:52:14.509Z,11.29
2023-09-07T06:54:14.419Z,10.67
2023-09-07T06:56:14.316Z,11.07
2023-09-07T06:58:14.351Z,10.40
2023-09-07T07:00:14.351Z,10.63
2023-09-07T07:02:14.453Z,10.25
2023-09-07T07:04:14.411Z,10.83
2023-09-07T07:06:14.339Z,10.68
2023-09-07T07:08:14.380Z,10.57
2023-09-07T07:10:14.400Z,9.68
2023-09-07T07:12:14.395Z,9.27
2023-09-07T07:14:14.363Z,9.37
2023-09-07T07:16:14.427Z,9.82
2023-09-07T07:18:14.424Z,11.13
2023-09-07T07:20:14.426Z,9.36
2023-09-07T07:22:14.386Z,9.92
2023-09-07T07:24:14.385Z,10.57
2023-09-07T07:26:14.460Z,9.84
2023-09-07T07:28:14.446Z,9.81
2023-09-07T07:30:14.442Z,8.80
2023-09-07T07:32:14.477Z,8.98
2023-09-07T07:34:14.448Z,9.00
2023-09-07T07:36:14.583Z,9.66
2023-09-07T07:38:14.476Z,8.40
2023-09-07T07:40:14.443Z,9.12
2023-09-07T07:42:14.440Z,8.46
2023-09-07T07:44:14.472Z,9.69
2023-09-07T07:46:14.573Z,10.33
2023-09-07T07:48:14.487Z,10.58
2023-09-07T07:50:14.470Z,9.46
2023-09-07T07:52:14.507Z,9.29
2023-09-07T07:54:14.509Z,9.43
2023-09-07T07:56:14.523Z,10.42
2023-09-07T07:58:14.469Z,10.33
2023-09-07T08:00:14.679Z,8.72
2023-09-07T08:02:14.523Z,8.55
2023-09-07T08:04:14.682Z,9.65
2023-09-07T08:07:14.572Z,9.16
2023-09-07T08:09:14.506Z,9.66
2023-09-07T08:11:14.514Z,9.25
2023-09-07T08:13:14.613Z,10.76
2023-09-07T08:15:14.560Z,8.57
2023-09-07T08:17:14.695Z,9.92
2023-09-07T08:19:14.633Z,10.15
2023-09-07T08:21:14.581Z,8.58
2023-09-07T08:23:14.601Z,8.56
2023-09-07T08:25:14.605Z,9.08
2023-09-07T08:27:14.564Z,10.17
2023-09-07T08:29:14.600Z,9.51
2023-09-07T08:31:14.657Z,9.16
2023-09-07T08:33:14.691Z,9.46
2023-09-07T08:35:14.632Z,9.22
2023-09-07T08:37:14.621Z,8.92
2023-09-07T08:39:14.655Z,8.26
2023-09-07T08:41:14.635Z,9.00
2023-09-07T08:43:14.607Z,8.44
2023-09-07T08:45:14.683Z,9.20
2023-09-07T08:47:14.641Z,8.77
2023-09-07T08:49:14.649Z,8.99
2023-09-07T08:51:14.626Z,9.40
2023-09-07T08:53:14.638Z,9.19
2023-09-07T08:55:14.677Z,9.36
2023-09-07T08:57:14.697Z,9.69
2023-09-07T08:59:14.648Z,8.22
2023-09-07T09:01:14.857Z,8.47
2023-09-07T09:03:14.934Z,8.53
2023-09-07T09:05:14.689Z,8.72
2023-09-07T09:07:14.697Z,8.95
2023-09-07T09:09:14.835Z,7.93
2023-09-07T09:11:14.711Z,9.16
2023-09-07T09:13:14.727Z,8.80
2023-09-07T09:15:14.684Z,9.46
2023-09-07T09:17:14.702Z,8.29
2023-09-07T09:19:14.738Z,7.50
2023-09-07T09:21:14.738Z,8.84
2023-09-07T09:23:14.788Z,9.65
2023-09-07T09:25:14.713Z,8.05
2023-09-07T09:27:14.718Z,9.30
2023-09-07T09:29:14.770Z,8.31
2023-09-07T09:31:14.772Z,9.16
2023-09-07T09:33:14.774Z,8.20
2023-09-07T09:35:14.754Z,8.86
2023-09-07T09:37:14.788Z,8.71
2023-09-07T09:39:14.789Z,7.76
2023-09-07T09:41:14.768Z,8.08
2023-09-07T09:43:14.755Z,8.45
2023-09-07T09:45:14.794Z,9.85
2023-09-07T09:47:14.926Z,10.69
2023-09-07T09:49:14.783Z,10.38
2023-09-07T09:51:14.773Z,9.50
2023-09-07T09:53:14.926Z,9.32
2023-09-07T09:55:14.838Z,9.23
2023-09-07T09:57:14.793Z,10.71
2023-09-07T09:59:14.940Z,9.46
2023-09-07T10:01:14.877Z,9.40
2023-09-07T10:03:14.934Z,8.58
2023-09-07T10:05:14.893Z,9.26
2023-09-07T10:07:14.869Z,9.88
2023-09-07T10:09:14.860Z,10.40
2023-09-07T10:11:14.876Z,10.44
2023-09-07T10:13:14.921Z,9.92
2023-09-07T10:15:14.869Z,10.82
2023-09-07T10:17:14.930Z,10.46
2023-09-07T10:19:14.890Z,9.31
2023-09-07T10:21:14.904Z,9.54
2023-09-07T10:23:14.885Z,9.34
2023-09-07T10:25:14.880Z,9.91
2023-09-07T10:27:14.919Z,8.32
2023-09-07T10:29:14.921Z,9.62
2023-09-07T10:31:14.950Z,11.46
2023-09-07T10:33:14.996Z,10.79
2023-09-07T10:35:14.939Z,11.54
2023-09-07T10:37:14.941Z,11.59
2023-09-07T10:39:17.303Z,11.44
2023-09-07T10:41:14.998Z,10.79
2023-09-07T10:43:14.962Z,10.85
2023-09-07T10:45:14.999Z,10.74
2023-09-07T10:47:14.943Z,10.46
2023-09-07T10:49:14.933Z,9.30
2023-09-07T10:51:14.998Z,11.06
2023-09-07T10:53:14.983Z,9.95
2023-09-07T10:55:15.049Z,11.51
2023-09-07T10:57:15.135Z,10.42
2023-09-07T10:59:14.969Z,9.60
2023-09-07T11:01:17.898Z,9.71
2023-09-07T11:03:15.154Z,9.83
2023-09-07T11:06:15.145Z,11.39
2023-09-07T11:08:15.029Z,11.49
2023-09-07T11:10:15.016Z,11.34
2023-09-07T11:12:15.039Z,11.05
2023-09-07T11:14:15.079Z,10.45
2023-09-07T11:16:15.084Z,10.52
2023-09-07T11:18:15.028Z,11.09
2023-09-07T11:20:15.042Z,10.37
2023-09-07T11:23:15.048Z,9.38
2023-09-07T11:25:15.078Z,9.85
2023-09-07T11:27:15.077Z,10.08
2023-09-07T11:29:15.086Z,10.29
2023-09-07T11:31:15.110Z,10.02
2023-09-07T11:33:15.150Z,8.71
2023-09-07T11:35:15.248Z,10.23
2023-09-07T11:37:15.138Z,10.22
2023-09-07T11:41:15.075Z,9.86
2023-09-07T11:43:15.138Z,9.79
2023-09-07T11:45:15.178Z,10.73
2023-09-07T11:47:15.112Z,10.86
2023-09-07T11:49:15.165Z,10.37
2023-09-07T11:51:15.142Z,9.86
2023-09-07T11:53:15.173Z,10.02
2023-09-07T11:55:15.226Z,9.47
2023-09-07T11:57:15.132Z,9.87
2023-09-07T11:59:15.217Z,10.22
2023-09-07T12:01:15.222Z,9.66
2023-09-07T12:03:15.199Z,8.77
2023-09-07T12:06:15.191Z,9.81
2023-09-07T12:08:15.173Z,9.48
2023-09-07T12:10:15.173Z,9.05
2023-09-07T12:12:15.199Z,8.45
2023-09-07T12:14:15.270Z,8.77
2023-09-07T12:16:15.265Z,9.06
2023-09-07T12:18:15.328Z,8.71
2023-09-07T12:20:15.254Z,8.24
2023-09-07T12:22:15.225Z,7.89
2023-09-07T12:24:15.260Z,7.84
2023-09-07T12:26:15.259Z,7.74
2023-09-07T12:28:15.241Z,7.66
2023-09-07T12:30:15.250Z,7.08
2023-09-07T12:32:15.288Z,7.58
2023-09-07T12:34:15.228Z,7.50
2023-09-07T12:36:15.237Z,7.78
2023-09-07T12:38:15.280Z,7.46
2023-09-07T12:40:15.276Z,6.47
2023-09-07T12:42:15.255Z,7.56
2023-09-07T12:44:15.255Z,7.68
2023-09-07T12:46:15.371Z,8.18
2023-09-07T12:48:15.311Z,7.63
2023-09-07T12:50:15.285Z,9.05
2023-09-07T12:52:15.292Z,8.88
2023-09-07T12:54:15.303Z,8.24
2023-09-07T12:56:15.323Z,8.32
2023-09-07T12:58:15.295Z,8.47
2023-09-07T13:00:15.302Z,9.11
2023-09-07T13:02:15.392Z,8.73
2023-09-07T13:04:15.348Z,8.60
2023-09-07T13:06:15.305Z,8.77
2023-09-07T13:08:15.309Z,8.49
2023-09-07T13:10:15.348Z,8.74
2023-09-07T13:12:15.362Z,8.66
2023-09-07T13:14:15.360Z,8.67
2023-09-07T13:16:15.364Z,9.09
2023-09-07T13:20:15.382Z,7.98
2023-09-07T13:22:15.395Z,9.46
2023-09-07T13:24:15.354Z,9.20
2023-09-07T13:26:15.383Z,8.76
2023-09-07T13:28:15.398Z,8.93
2023-09-07T13:30:15.412Z,8.54
2023-09-07T13:32:15.383Z,8.55
2023-09-07T13:34:15.378Z,8.62
2023-09-07T13:36:15.429Z,9.26
2023-09-07T13:38:15.443Z,8.79
2023-09-07T13:40:15.416Z,8.87
2023-09-07T13:42:15.409Z,8.39
2023-09-07T13:44:15.454Z,7.26
2023-09-07T13:46:15.477Z,9.01
2023-09-07T13:48:15.505Z,8.72
2023-09-07T13:50:15.434Z,8.63
2023-09-07T13:52:15.476Z,8.35
2023-09-07T13:54:15.480Z,8.38
2023-09-07T13:56:15.500Z,8.55
2023-09-07T13:58:15.450Z,9.08
2023-09-07T14:00:15.509Z,8.19
2023-09-07T14:02:15.549Z,8.12
2023-09-07T14:04:15.513Z,8.84
2023-09-07T14:07:15.522Z,8.14
2023-09-07T14:09:15.474Z,7.97
2023-09-07T14:11:15.500Z,8.47
2023-09-07T14:13:15.526Z,8.83
2023-09-07T14:15:15.535Z,8.28
2023-09-07T14:17:15.541Z,7.80
2023-09-07T14:19:15.723Z,7.49
2023-09-07T14:21:15.551Z,7.55
2023-09-07T14:23:15.558Z,7.82
2023-09-07T14:25:15.566Z,7.84
2023-09-07T14:27:15.538Z,8.28
2023-09-07T14:29:15.561Z,7.71
2023-09-07T14:31:15.634Z,8.02
2023-09-07T14:33:15.583Z,7.16
2023-09-07T14:35:15.568Z,7.64
2023-09-07T14:37:15.639Z,7.59
2023-09-07T14:39:15.587Z,7.42
2023-09-07T14:41:15.601Z,7.97
2023-09-07T14:43:15.572Z,8.19
2023-09-07T14:45:15.564Z,7.94
2023-09-07T14:47:15.609Z,7.15
2023-09-07T14:49:15.658Z,8.12
2023-09-07T14:53:15.603Z,7.22
2023-09-07T14:55:15.640Z,7.79
2023-09-07T14:57:18.135Z,8.47
2023-09-07T14:59:15.635Z,7.27
2023-09-07T15:01:15.619Z,7.57
2023-09-07T15:03:15.703Z,8.15
2023-09-07T15:05:15.748Z,7.75
2023-09-07T15:07:15.689Z,7.72
2023-09-07T15:09:15.641Z,7.95
2023-09-07T15:11:15.657Z,7.83
2023-09-07T15:13:15.686Z,7.11
2023-09-07T15:15:15.687Z,7.81
2023-09-07T15:17:15.691Z,7.40
2023-09-07T15:20:15.726Z,7.54
2023-09-07T15:23:15.745Z,8.18
2023-09-07T15:25:15.676Z,7.19
2023-09-07T15:27:15.696Z,8.02
2023-09-07T15:30:15.702Z,6.62
2023-09-07T15:32:15.811Z,7.44
2023-09-07T15:34:15.749Z,7.66
2023-09-07T15:36:15.746Z,7.23
2023-09-07T15:41:15.768Z,7.76
2023-09-07T15:43:15.730Z,6.95
2023-09-07T15:45:15.761Z,7.50
2023-09-07T15:47:15.823Z,7.65
2023-09-07T15:50:15.816Z,7.30
2023-09-07T15:52:15.792Z,7.23
2023-09-07T15:54:15.761Z,7.85
2023-09-07T15:56:15.821Z,7.34
2023-09-07T15:58:15.833Z,7.23
2023-09-07T16:00:15.820Z,8.34
2023-09-07T16:02:15.841Z,7.94
2023-09-07T16:04:15.842Z,7.86
2023-09-07T16:06:15.822Z,8.41
2023-09-07T16:09:15.808Z,7.92
2023-09-07T16:12:15.809Z,7.29
2023-09-07T16:14:15.834Z,8.87
2023-09-07T16:17:15.894Z,10.17
2023-09-07T16:19:17.387Z,7.98
2023-09-07T16:21:15.944Z,8.10
2023-09-07T16:26:15.904Z,7.80
2023-09-07T16:28:15.856Z,8.49
2023-09-07T16:30:15.863Z,7.25
2023-09-07T16:32:15.970Z,7.48
2023-09-07T16:34:15.896Z,7.77
2023-09-07T16:36:15.860Z,8.77
2023-09-07T16:38:15.890Z,9.01
2023-09-07T16:40:15.918Z,8.06
2023-09-07T16:42:15.917Z,8.35
2023-09-07T16:44:15.970Z,7.67
2023-09-07T16:46:15.948Z,8.02
2023-09-07T16:48:16.016Z,8.15
2023-09-07T16:51:15.924Z,7.60
2023-09-07T16:54:15.915Z,8.99
2023-09-07T16:56:15.933Z,7.70
2023-09-07T16:58:15.975Z,7.64
2023-09-07T17:00:16.008Z,7.95
2023-09-07T17:03:16.156Z,9.01
2023-09-07T17:05:16.140Z,8.94
2023-09-07T17:07:15.961Z,8.39
2023-09-07T17:09:15.989Z,8.86
2023-09-07T17:11:16.090Z,9.04
2023-09-07T17:13:16.004Z,8.96
2023-09-07T17:15:15.982Z,9.61
2023-09-07T17:17:16.036Z,8.78
2023-09-07T17:19:16.028Z,9.26
2023-09-07T17:21:16.026Z,8.43
2023-09-07T17:23:16.005Z,9.51
2023-09-07T17:25:16.008Z,8.94
2023-09-07T17:27:16.044Z,8.68
2023-09-07T17:29:16.052Z,8.77
2023-09-07T17:31:16.077Z,9.44
2023-09-07T17:33:16.162Z,9.14
2023-09-07T17:35:16.131Z,9.28
2023-09-07T17:37:16.078Z,9.71
2023-09-07T17:39:16.081Z,8.36
2023-09-07T17:41:16.041Z,9.21
2023-09-07T17:43:16.093Z,8.53
2023-09-07T17:45:16.106Z,9.39
2023-09-07T17:47:16.104Z,9.51
2023-09-07T17:49:16.062Z,10.08
2023-09-07T17:51:16.074Z,10.48
2023-09-07T17:53:16.122Z,10.58
2023-09-07T17:55:16.115Z,10.17
2023-09-07T17:57:16.128Z,10.72
2023-09-07T17:59:16.104Z,8.78
2023-09-07T18:01:16.249Z,10.28
2023-09-07T18:03:16.322Z,10.50
2023-09-07T18:05:16.107Z,10.95
2023-09-07T18:07:16.113Z,9.61
2023-09-07T18:10:16.127Z,9.75
2023-09-07T18:12:16.160Z,9.58
2023-09-07T18:14:16.176Z,10.18
2023-09-07T18:16:16.237Z,10.65
2023-09-07T18:18:16.204Z,10.36
2023-09-07T18:20:16.142Z,9.83
2023-09-07T18:22:16.189Z,10.16
2023-09-07T18:24:16.241Z,10.96
2023-09-07T18:26:16.496Z,9.94
2023-09-07T18:28:16.220Z,10.00
2023-09-07T18:31:16.304Z,11.17
2023-09-07T18:33:16.241Z,10.72
2023-09-07T18:35:16.225Z,10.33
2023-09-07T18:37:16.233Z,10.92
2023-09-07T18:40:16.245Z,10.99
2023-09-07T18:42:16.240Z,10.95
2023-09-07T18:44:16.214Z,10.56
2023-09-07T18:46:16.306Z,11.87
2023-09-07T18:48:16.299Z,11.38
2023-09-07T18:50:16.298Z,10.67
2023-09-07T18:52:16.246Z,10.85
2023-09-07T18:54:16.249Z,10.23
2023-09-07T18:56:16.281Z,10.79
2023-09-07T18:58:16.316Z,10.49
2023-09-07T19:00:16.369Z,11.05
2023-09-07T19:02:16.269Z,11.81
2023-09-07T19:04:16.309Z,11.08
2023-09-07T19:06:16.331Z,11.72
2023-09-07T19:08:16.287Z,11.99
2023-09-07T19:10:16.287Z,10.59
2023-09-07T19:12:16.324Z,11.83
2023-09-07T19:14:16.352Z,11.09
2023-09-07T19:16:16.342Z,10.42
2023-09-07T19:18:16.328Z,11.24
2023-09-07T19:20:16.436Z,11.08
2023-09-07T19:22:16.350Z,10.88
2023-09-07T19:24:16.363Z,11.84
2023-09-07T19:26:16.365Z,10.89
2023-09-07T19:28:16.329Z,11.17
2023-09-07T19:30:16.374Z,10.30
2023-09-07T19:32:16.368Z,11.40
2023-09-07T19:36:16.360Z,11.28
2023-09-07T19:38:16.393Z,13.53
2023-09-07T19:40:16.410Z,13.39
2023-09-07T19:43:16.409Z,13.25
2023-09-07T19:45:16.419Z,12.27
2023-09-07T19:48:16.463Z,11.93
2023-09-07T19:50:16.397Z,11.58
2023-09-07T19:52:16.403Z,11.84
2023-09-07T19:54:16.483Z,12.21
2023-09-07T19:56:16.447Z,11.83
2023-09-07T19:58:16.430Z,10.86
2023-09-07T20:00:16.491Z,11.03
2023-09-07T20:02:16.491Z,11.87
2023-09-07T20:04:16.560Z,11.16
2023-09-07T20:06:16.494Z,10.93
2023-09-07T20:08:16.448Z,10.73
2023-09-07T20:10:16.470Z,11.92
2023-09-07T20:12:16.596Z,11.90
2023-09-07T20:14:16.522Z,12.05
2023-09-07T20:16:16.578Z,12.57
2023-09-07T20:18:16.565Z,12.30
2023-09-07T20:20:16.494Z,12.26
2023-09-07T20:22:16.573Z,12.68
2023-09-07T20:24:16.488Z,12.52
2023-09-07T20:26:16.491Z,11.67
2023-09-07T20:28:16.538Z,12.51
2023-09-07T20:30:16.530Z,11.96
2023-09-07T20:32:16.604Z,13.44
2023-09-07T20:34:16.501Z,11.88
2023-09-07T20:36:16.574Z,11.84
2023-09-07T20:38:16.546Z,12.19
2023-09-07T20:40:16.522Z,12.18
2023-09-07T20:42:16.522Z,12.79
2023-09-07T20:44:16.554Z,12.70
2023-09-07T20:46:16.589Z,12.95
2023-09-07T20:48:16.594Z,13.70
2023-09-07T20:50:16.539Z,14.51
2023-09-07T20:52:16.578Z,14.28
2023-09-07T20:54:16.663Z,12.74
2023-09-07T20:58:16.599Z,13.05
2023-09-07T21:00:16.607Z,11.99
2023-09-07T21:02:16.694Z,13.96
2023-09-07T21:04:16.638Z,12.56
2023-09-07T21:06:16.649Z,13.45
2023-09-07T21:08:16.602Z,14.35
2023-09-07T21:10:16.679Z,14.30
2023-09-07T21:12:16.686Z,13.27
2023-09-07T21:14:16.605Z,14.10
2023-09-07T21:16:16.725Z,17.70
2023-09-07T21:18:16.776Z,18.26
2023-09-07T21:20:16.667Z,15.90
2023-09-07T21:22:16.660Z,13.65
2023-09-07T21:24:16.661Z,15.32
2023-09-07T21:26:16.670Z,15.61
2023-09-07T21:28:16.682Z,14.71
2023-09-07T21:30:16.738Z,13.15
2023-09-07T21:32:16.645Z,14.81
2023-09-07T21:35:16.728Z,13.80
2023-09-07T21:38:16.711Z,13.87
2023-09-07T21:40:16.711Z,12.67
2023-09-07T21:42:16.692Z,12.77
2023-09-07T21:44:16.724Z,12.91
2023-09-07T21:46:16.889Z,12.03
2023-09-07T21:48:16.694Z,14.07
2023-09-07T21:50:16.720Z,13.99
2023-09-07T21:52:16.740Z,12.71
2023-09-07T21:54:16.751Z,12.96
2023-09-07T21:56:16.768Z,12.46
2023-09-07T21:58:16.746Z,13.32
2023-09-07T22:00:16.754Z,12.43
2023-09-07T22:03:16.815Z,12.89
2023-09-07T22:05:16.801Z,13.75
2023-09-07T22:08:16.980Z,12.77
2023-09-07T22:10:16.781Z,13.99
2023-09-07T22:13:16.805Z,12.25
2023-09-07T22:15:16.849Z,13.32
2023-09-07T22:17:16.818Z,10.96
2023-09-07T22:19:16.786Z,12.29
2023-09-07T22:21:16.821Z,11.85
2023-09-07T22:23:20.680Z,12.78
2023-09-07T22:25:16.793Z,12.15
2023-09-07T22:27:16.805Z,11.57
2023-09-07T22:30:16.832Z,12.85
2023-09-07T22:32:16.840Z,12.14
2023-09-07T22:34:16.869Z,12.94
2023-09-07T22:36:16.860Z,12.55
2023-09-07T22:38:16.829Z,11.22
2023-09-07T22:40:17.087Z,12.17
2023-09-07T22:42:16.873Z,12.56
2023-09-07T22:44:16.960Z,12.07
2023-09-07T22:46:16.937Z,12.54
2023-09-07T22:48:16.869Z,12.68
2023-09-07T22:50:16.888Z,11.24
2023-09-07T22:52:16.890Z,12.74
2023-09-07T22:54:17.011Z,12.45
2023-09-07T22:56:16.869Z,11.70
2023-09-07T22:58:16.916Z,12.65
2023-09-07T23:00:16.982Z,12.10
2023-09-07T23:02:16.935Z,11.95
2023-09-07T23:04:17.072Z,10.84
2023-09-07T23:06:16.909Z,12.09
2023-09-07T23:08:16.986Z,12.27
2023-09-07T23:10:16.957Z,11.94
2023-09-07T23:12:17.095Z,12.29
2023-09-07T23:14:16.916Z,12.18
2023-09-07T23:16:16.989Z,14.16
2023-09-07T23:18:17.067Z,12.75
2023-09-07T23:20:16.949Z,12.88
2023-09-07T23:22:16.947Z,12.84
2023-09-07T23:24:17.033Z,13.43
2023-09-07T23:26:16.979Z,15.34
2023-09-07T23:28:16.965Z,16.77
2023-09-07T23:30:17.013Z,15.79
2023-09-07T23:32:17.015Z,16.10
2023-09-07T23:34:17.071Z,14.18
2023-09-07T23:37:17.043Z,13.76
2023-09-07T23:39:17.038Z,12.59
2023-09-07T23:41:16.992Z,12.59
2023-09-07T23:43:17.001Z,11.84
2023-09-07T23:45:17.013Z,12.99
2023-09-07T23:47:17.099Z,13.74
2023-09-07T23:49:17.081Z,13.72
2023-09-07T23:51:17.014Z,12.95
2023-09-07T23:54:17.029Z,14.40
2023-09-07T23:56:17.053Z,13.60
2023-09-07T23:58:17.124Z,14.46
